createdAt,value
2019-05-20T00:00:40.003Z,998.94
2019-05-20T00:01:20.567Z,998.95
2019-05-20T00:02:01.163Z,998.95
2019-05-20T00:02:41.748Z,998.93
2019-05-20T00:03:22.336Z,998.91
2019-05-20T00:04:02.986Z,998.92
2019-05-20T00:04:43.553Z,998.92
2019-05-20T00:05:24.145Z,998.9
2019-05-20T00:06:04.835Z,998.89
2019-05-20T00:06:45.464Z,998.92
2019-05-20T00:07:26.076Z,998.91
2019-05-20T00:08:06.658Z,998.94
2019-05-20T00:08:47.302Z,998.93
2019-05-20T00:09:27.923Z,999.01
2019-05-20T00:10:08.473Z,998.95
2019-05-20T00:10:49.049Z,998.93
2019-05-20T00:11:29.627Z,998.96
2019-05-20T00:12:10.205Z,998.98
2019-05-20T00:12:50.817Z,998.99
2019-05-20T00:15:49.634Z,998.94
2019-05-20T00:16:30.195Z,998.92
2019-05-20T00:17:10.849Z,998.94
2019-05-20T00:17:51.456Z,998.95
2019-05-20T00:18:32.029Z,998.94
2019-05-20T00:19:12.634Z,998.98
2019-05-20T00:19:53.237Z,998.98
2019-05-20T00:20:33.827Z,999.02
2019-05-20T00:21:14.429Z,999.05
2019-05-20T00:21:55.030Z,999.02
2019-05-20T00:22:35.639Z,999.05
2019-05-20T00:23:16.234Z,999.05
2019-05-20T00:23:56.793Z,999.07
2019-05-20T00:24:37.400Z,999.06
2019-05-20T00:25:17.985Z,999.07
2019-05-20T00:25:58.574Z,999.06
2019-05-20T00:26:39.165Z,999.03
2019-05-20T00:27:19.724Z,999.04
2019-05-20T00:28:00.346Z,999.08
2019-05-20T00:28:40.919Z,999.08
2019-05-20T00:29:21.497Z,999.08
2019-05-20T00:30:02.100Z,999.07
2019-05-20T00:30:42.703Z,999.09
2019-05-20T00:31:23.281Z,999.05
2019-05-20T00:32:03.837Z,999.03
2019-05-20T00:32:44.421Z,999.06
2019-05-20T00:33:25.004Z,999.03
2019-05-20T00:34:05.575Z,999.03
2019-05-20T00:34:46.147Z,999.08
2019-05-20T00:35:26.793Z,999.05
2019-05-20T00:36:07.383Z,999.04
2019-05-20T00:36:47.960Z,999
2019-05-20T00:37:28.547Z,999.03
2019-05-20T00:38:09.120Z,999.03
2019-05-20T00:38:49.687Z,998.99
2019-05-20T00:39:30.363Z,999
2019-05-20T00:40:10.971Z,998.96
2019-05-20T00:40:51.541Z,998.97
2019-05-20T00:41:32.099Z,998.95
2019-05-20T00:42:12.679Z,998.97
2019-05-20T00:42:53.285Z,998.95
2019-05-20T00:43:33.876Z,998.97
2019-05-20T00:44:14.468Z,998.98
2019-05-20T00:44:55.120Z,998.96
2019-05-20T00:45:35.742Z,999
2019-05-20T00:46:16.343Z,999
2019-05-20T00:46:56.912Z,998.99
2019-05-20T00:47:37.476Z,999
2019-05-20T00:48:18.067Z,999.01
2019-05-20T00:48:58.642Z,998.96
2019-05-20T00:49:39.258Z,998.96
2019-05-20T00:50:19.840Z,999
2019-05-20T00:51:00.396Z,998.97
2019-05-20T00:51:40.978Z,998.98
2019-05-20T00:52:21.579Z,999
2019-05-20T00:53:02.165Z,999.01
2019-05-20T00:53:42.797Z,999.02
2019-05-20T00:54:23.380Z,999.04
2019-05-20T00:55:03.938Z,999
2019-05-20T00:55:44.505Z,999.05
2019-05-20T00:56:25.085Z,999.02
2019-05-20T00:57:05.653Z,998.99
2019-05-20T00:57:46.218Z,998.99
2019-05-20T00:58:26.801Z,998.99
2019-05-20T00:59:07.380Z,998.95
2019-05-20T00:59:47.952Z,998.94
2019-05-20T01:00:28.508Z,998.89
2019-05-20T01:01:09.100Z,998.93
2019-05-20T01:01:49.672Z,998.95
2019-05-20T01:02:30.256Z,998.95
2019-05-20T01:03:10.850Z,998.94
2019-05-20T01:03:51.495Z,998.93
2019-05-20T01:04:32.045Z,998.95
2019-05-20T01:05:12.704Z,998.96
2019-05-20T01:05:53.285Z,998.95
2019-05-20T01:06:33.900Z,998.95
2019-05-20T01:07:14.487Z,998.95
2019-05-20T01:07:55.087Z,998.96
2019-05-20T01:08:35.664Z,998.99
2019-05-20T01:09:16.301Z,998.97
2019-05-20T01:09:56.869Z,998.96
2019-05-20T01:10:37.462Z,998.96
2019-05-20T01:11:18.083Z,998.97
2019-05-20T01:11:58.688Z,998.95
2019-05-20T01:12:39.337Z,998.98
2019-05-20T01:13:19.970Z,998.99
2019-05-20T01:14:00.551Z,999.01
2019-05-20T01:14:41.142Z,998.97
2019-05-20T01:15:21.740Z,998.98
2019-05-20T01:16:02.316Z,999
2019-05-20T01:16:42.971Z,999
2019-05-20T01:17:23.570Z,998.97
2019-05-20T01:18:04.209Z,999.02
2019-05-20T01:18:44.827Z,999.01
2019-05-20T01:19:25.468Z,999.01
2019-05-20T01:20:05.995Z,999.01
2019-05-20T01:20:46.549Z,999.03
2019-05-20T01:21:27.134Z,998.99
2019-05-20T01:22:07.737Z,998.98
2019-05-20T01:22:48.322Z,998.98
2019-05-20T01:23:28.880Z,999.02
2019-05-20T01:24:09.462Z,999.02
2019-05-20T01:24:50.033Z,998.98
2019-05-20T01:25:30.645Z,998.97
2019-05-20T01:26:11.256Z,999
2019-05-20T01:26:51.839Z,998.99
2019-05-20T01:27:32.438Z,998.96
2019-05-20T01:28:13.041Z,998.95
2019-05-20T01:28:53.577Z,998.93
2019-05-20T01:29:34.161Z,998.95
2019-05-20T01:30:14.776Z,998.97
2019-05-20T01:30:55.369Z,998.95
2019-05-20T01:31:35.938Z,998.97
2019-05-20T01:32:16.503Z,998.95
2019-05-20T01:33:10.920Z,998.97
2019-05-20T01:33:37.676Z,998.93
2019-05-20T01:34:18.266Z,998.92
2019-05-20T01:34:58.832Z,998.89
2019-05-20T01:35:39.409Z,998.89
2019-05-20T01:36:19.988Z,998.87
2019-05-20T01:37:00.608Z,998.87
2019-05-20T01:37:41.268Z,998.84
2019-05-20T01:38:21.840Z,998.81
2019-05-20T01:39:02.390Z,998.82
2019-05-20T01:39:43.020Z,998.8
2019-05-20T01:40:23.635Z,998.81
2019-05-20T01:41:04.216Z,998.78
2019-05-20T01:41:44.771Z,998.74
2019-05-20T01:42:25.328Z,998.75
2019-05-20T01:43:05.943Z,998.75
2019-05-20T01:43:46.532Z,998.75
2019-05-20T01:44:27.143Z,998.75
2019-05-20T01:45:07.793Z,998.74
2019-05-20T01:45:48.409Z,998.77
2019-05-20T01:46:29.056Z,998.76
2019-05-20T01:49:22.786Z,998.65
2019-05-20T01:50:03.330Z,998.65
2019-05-20T01:50:43.941Z,998.66
2019-05-20T01:51:24.535Z,998.69
2019-05-20T01:52:05.100Z,998.69
2019-05-20T01:52:45.698Z,998.67
2019-05-20T01:53:26.272Z,998.66
2019-05-20T01:54:06.835Z,998.67
2019-05-20T01:54:47.449Z,998.67
2019-05-20T01:55:27.999Z,998.68
2019-05-20T01:56:08.607Z,998.66
2019-05-20T01:56:49.222Z,998.66
2019-05-20T01:59:48.020Z,998.69
2019-05-20T02:00:28.597Z,998.66
2019-05-20T02:01:09.197Z,998.71
2019-05-20T02:01:49.794Z,998.68
2019-05-20T02:02:30.377Z,998.67
2019-05-20T02:03:10.947Z,998.71
2019-05-20T02:03:51.527Z,998.7
2019-05-20T02:04:32.089Z,998.68
2019-05-20T02:05:12.695Z,998.69
2019-05-20T02:05:53.290Z,998.68
2019-05-20T02:06:33.847Z,998.69
2019-05-20T02:07:14.452Z,998.68
2019-05-20T02:07:55.068Z,998.67
2019-05-20T02:08:35.639Z,998.65
2019-05-20T02:09:16.212Z,998.68
2019-05-20T02:09:56.813Z,998.7
2019-05-20T02:10:37.381Z,998.71
2019-05-20T02:11:17.942Z,998.7
2019-05-20T02:12:01.220Z,998.72
2019-05-20T02:12:41.787Z,998.7
2019-05-20T02:13:22.373Z,998.67
2019-05-20T02:14:02.965Z,998.71
2019-05-20T02:14:43.545Z,998.65
2019-05-20T02:15:24.122Z,998.61
2019-05-20T02:16:04.710Z,998.71
2019-05-20T02:16:45.307Z,998.73
2019-05-20T02:17:25.893Z,998.67
2019-05-20T02:18:06.501Z,998.71
2019-05-20T02:18:47.094Z,998.67
2019-05-20T02:19:27.688Z,998.69
2019-05-20T02:20:08.380Z,998.66
2019-05-20T02:20:48.871Z,998.62
2019-05-20T02:21:29.475Z,998.61
2019-05-20T02:22:10.081Z,998.63
2019-05-20T02:22:50.659Z,998.59
2019-05-20T02:23:31.533Z,998.61
2019-05-20T02:24:12.070Z,998.63
2019-05-20T02:24:52.666Z,998.6
2019-05-20T02:25:33.232Z,998.59
2019-05-20T02:26:13.819Z,998.6
2019-05-20T02:26:54.383Z,998.61
2019-05-20T02:27:34.960Z,998.6
2019-05-20T02:28:15.583Z,998.57
2019-05-20T02:28:56.177Z,998.58
2019-05-20T02:29:36.737Z,998.57
2019-05-20T02:30:17.354Z,998.57
2019-05-20T02:30:57.976Z,998.59
2019-05-20T02:31:38.531Z,998.55
2019-05-20T02:32:19.132Z,998.52
2019-05-20T02:32:59.740Z,998.52
2019-05-20T02:33:51.396Z,998.51
2019-05-20T02:34:20.980Z,998.46
2019-05-20T02:35:01.584Z,998.49
2019-05-20T02:35:42.198Z,998.5
2019-05-20T02:36:22.784Z,998.48
2019-05-20T02:37:03.358Z,998.46
2019-05-20T02:37:43.938Z,998.46
2019-05-20T02:38:24.563Z,998.47
2019-05-20T02:39:05.134Z,998.45
2019-05-20T02:39:45.718Z,998.46
2019-05-20T02:40:26.295Z,998.45
2019-05-20T02:41:06.900Z,998.43
2019-05-20T02:41:47.481Z,998.41
2019-05-20T02:42:28.087Z,998.42
2019-05-20T02:43:08.657Z,998.44
2019-05-20T02:43:49.281Z,998.4
2019-05-20T02:44:29.863Z,998.4
2019-05-20T02:45:10.464Z,998.34
2019-05-20T02:45:51.003Z,998.37
2019-05-20T02:46:31.580Z,998.34
2019-05-20T02:47:12.167Z,998.37
2019-05-20T02:47:52.779Z,998.38
2019-05-20T02:48:33.377Z,998.35
2019-05-20T02:49:13.927Z,998.34
2019-05-20T02:49:54.516Z,998.35
2019-05-20T02:50:35.097Z,998.38
2019-05-20T02:51:15.665Z,998.38
2019-05-20T02:51:56.216Z,998.39
2019-05-20T02:52:36.802Z,998.38
2019-05-20T02:53:17.391Z,998.38
2019-05-20T02:53:58.018Z,998.39
2019-05-20T02:54:38.576Z,998.39
2019-05-20T02:55:19.162Z,998.4
2019-05-20T02:55:59.731Z,998.4
2019-05-20T02:56:40.326Z,998.38
2019-05-20T02:57:20.909Z,998.42
2019-05-20T02:58:01.481Z,998.39
2019-05-20T02:58:42.099Z,998.41
2019-05-20T02:59:22.658Z,998.42
2019-05-20T03:00:03.258Z,998.39
2019-05-20T03:00:43.831Z,998.39
2019-05-20T03:01:24.386Z,998.41
2019-05-20T03:02:04.995Z,998.4
2019-05-20T03:02:45.506Z,998.39
2019-05-20T03:03:26.137Z,998.4
2019-05-20T03:04:11.917Z,998.38
2019-05-20T03:04:47.365Z,998.38
2019-05-20T03:05:27.954Z,998.38
2019-05-20T03:06:08.565Z,998.36
2019-05-20T03:06:49.144Z,998.34
2019-05-20T03:07:29.756Z,998.35
2019-05-20T03:08:10.358Z,998.36
2019-05-20T03:08:50.936Z,998.37
2019-05-20T03:09:31.527Z,998.37
2019-05-20T03:10:12.113Z,998.36
2019-05-20T03:10:52.718Z,998.43
2019-05-20T03:11:33.361Z,998.4
2019-05-20T03:12:13.926Z,998.39
2019-05-20T03:12:54.520Z,998.37
2019-05-20T03:13:35.080Z,998.38
2019-05-20T03:14:15.662Z,998.41
2019-05-20T03:14:56.365Z,998.4
2019-05-20T03:15:36.858Z,998.39
2019-05-20T03:16:17.401Z,998.43
2019-05-20T03:16:57.971Z,998.43
2019-05-20T03:17:38.563Z,998.41
2019-05-20T03:18:19.153Z,998.44
2019-05-20T03:18:59.742Z,998.4
2019-05-20T03:19:40.324Z,998.42
2019-05-20T03:20:20.915Z,998.41
2019-05-20T03:21:01.496Z,998.39
2019-05-20T03:21:42.084Z,998.35
2019-05-20T03:22:22.688Z,998.39
2019-05-20T03:23:03.518Z,998.36
2019-05-20T03:23:44.078Z,998.4
2019-05-20T03:24:24.684Z,998.4
2019-05-20T03:25:05.259Z,998.39
2019-05-20T03:25:45.861Z,998.4
2019-05-20T03:26:26.422Z,998.4
2019-05-20T03:27:06.965Z,998.41
2019-05-20T03:27:47.525Z,998.42
2019-05-20T03:28:28.141Z,998.39
2019-05-20T03:29:08.765Z,998.36
2019-05-20T03:29:49.399Z,998.35
2019-05-20T03:30:30.000Z,998.39
2019-05-20T03:31:10.619Z,998.4
2019-05-20T03:31:51.148Z,998.4
2019-05-20T03:32:31.708Z,998.4
2019-05-20T03:33:12.284Z,998.4
2019-05-20T03:33:52.889Z,998.42
2019-05-20T03:34:53.941Z,998.43
2019-05-20T03:35:14.136Z,998.4
2019-05-20T03:35:54.617Z,998.42
2019-05-20T03:36:35.183Z,998.43
2019-05-20T03:37:15.802Z,998.43
2019-05-20T03:37:56.362Z,998.4
2019-05-20T03:38:36.939Z,998.42
2019-05-20T03:39:17.507Z,998.43
2019-05-20T03:39:58.078Z,998.42
2019-05-20T03:40:38.679Z,998.42
2019-05-20T03:41:19.260Z,998.43
2019-05-20T03:41:59.839Z,998.42
2019-05-20T03:42:40.421Z,998.42
2019-05-20T03:43:21.004Z,998.4
2019-05-20T03:44:01.550Z,998.4
2019-05-20T03:44:42.157Z,998.39
2019-05-20T03:45:22.750Z,998.33
2019-05-20T03:46:03.401Z,998.35
2019-05-20T03:46:43.996Z,998.35
2019-05-20T03:47:24.644Z,998.29
2019-05-20T03:48:05.183Z,998.33
2019-05-20T03:48:45.824Z,998.32
2019-05-20T03:49:26.410Z,998.31
2019-05-20T03:50:06.995Z,998.28
2019-05-20T03:50:47.596Z,998.32
2019-05-20T03:51:28.185Z,998.33
2019-05-20T03:52:08.775Z,998.31
2019-05-20T03:52:49.383Z,998.32
2019-05-20T03:53:30.000Z,998.33
2019-05-20T03:54:10.587Z,998.28
2019-05-20T03:54:51.182Z,998.34
2019-05-20T03:55:31.754Z,998.38
2019-05-20T03:56:12.357Z,998.33
2019-05-20T03:56:52.901Z,998.31
2019-05-20T03:57:33.496Z,998.31
2019-05-20T03:58:14.239Z,998.33
2019-05-20T03:58:54.657Z,998.28
2019-05-20T03:59:35.247Z,998.33
2019-05-20T04:00:15.861Z,998.3
2019-05-20T04:00:56.439Z,998.3
2019-05-20T04:01:37.036Z,998.25
2019-05-20T04:02:17.611Z,998.27
2019-05-20T04:02:58.206Z,998.27
2019-05-20T04:03:38.805Z,998.26
2019-05-20T04:04:19.434Z,998.27
2019-05-20T04:05:02.683Z,998.26
2019-05-20T04:05:40.584Z,998.25
2019-05-20T04:06:21.176Z,998.24
2019-05-20T04:07:01.775Z,998.24
2019-05-20T04:07:42.326Z,998.22
2019-05-20T04:08:22.895Z,998.24
2019-05-20T04:09:03.526Z,998.29
2019-05-20T04:09:44.095Z,998.23
2019-05-20T04:10:24.631Z,998.25
2019-05-20T04:11:05.237Z,998.23
2019-05-20T04:11:45.882Z,998.24
2019-05-20T04:12:26.449Z,998.23
2019-05-20T04:13:07.057Z,998.21
2019-05-20T04:13:47.648Z,998.25
2019-05-20T04:14:28.325Z,998.21
2019-05-20T04:15:08.956Z,998.21
2019-05-20T04:15:49.530Z,998.23
2019-05-20T04:16:30.102Z,998.22
2019-05-20T04:17:10.742Z,998.22
2019-05-20T04:17:51.372Z,998.23
2019-05-20T04:18:31.957Z,998.19
2019-05-20T04:19:12.545Z,998.18
2019-05-20T04:19:53.147Z,998.22
2019-05-20T04:20:33.705Z,998.2
2019-05-20T04:21:14.347Z,998.22
2019-05-20T04:21:54.949Z,998.25
2019-05-20T04:22:35.549Z,998.23
2019-05-20T04:23:16.421Z,998.24
2019-05-20T04:24:00.928Z,998.23
2019-05-20T04:24:37.600Z,998.22
2019-05-20T04:25:18.184Z,998.24
2019-05-20T04:25:58.772Z,998.25
2019-05-20T04:26:39.351Z,998.27
2019-05-20T04:27:19.925Z,998.3
2019-05-20T04:28:00.551Z,998.31
2019-05-20T04:28:41.211Z,998.36
2019-05-20T04:29:21.811Z,998.29
2019-05-20T04:30:02.385Z,998.31
2019-05-20T04:30:42.973Z,998.31
2019-05-20T04:31:23.544Z,998.32
2019-05-20T04:32:04.109Z,998.34
2019-05-20T04:32:44.780Z,998.31
2019-05-20T04:33:25.899Z,998.32
2019-05-20T04:34:06.512Z,998.3
2019-05-20T04:34:47.276Z,998.27
2019-05-20T04:35:28.561Z,998.3
2019-05-20T04:36:09.309Z,998.29
2019-05-20T04:36:50.164Z,998.26
2019-05-20T04:37:30.889Z,998.26
2019-05-20T04:38:11.617Z,998.23
2019-05-20T04:38:52.459Z,998.31
2019-05-20T04:39:33.278Z,998.22
2019-05-20T04:40:13.922Z,998.27
2019-05-20T04:40:54.482Z,998.26
2019-05-20T04:41:35.840Z,998.27
2019-05-20T04:42:16.333Z,998.3
2019-05-20T04:42:57.239Z,998.29
2019-05-20T04:43:37.752Z,998.3
2019-05-20T04:44:18.589Z,998.31
2019-05-20T04:44:59.157Z,998.33
2019-05-20T04:45:39.793Z,998.34
2019-05-20T04:46:20.425Z,998.33
2019-05-20T04:47:01.213Z,998.38
2019-05-20T04:47:41.864Z,998.41
2019-05-20T04:48:22.642Z,998.39
2019-05-20T04:49:03.520Z,998.41
2019-05-20T04:49:44.218Z,998.42
2019-05-20T04:50:24.737Z,998.42
2019-05-20T04:51:05.426Z,998.45
2019-05-20T04:51:46.109Z,998.43
2019-05-20T04:52:26.703Z,998.49
2019-05-20T04:53:07.240Z,998.43
2019-05-20T04:53:47.833Z,998.44
2019-05-20T04:54:28.436Z,998.45
2019-05-20T04:55:09.029Z,998.43
2019-05-20T04:55:49.627Z,998.45
2019-05-20T04:56:30.195Z,998.43
2019-05-20T04:57:10.846Z,998.43
2019-05-20T04:57:51.420Z,998.4
2019-05-20T04:58:32.028Z,998.43
2019-05-20T04:59:12.604Z,998.43
2019-05-20T04:59:53.180Z,998.45
2019-05-20T05:00:33.732Z,998.44
2019-05-20T05:01:14.299Z,998.44
2019-05-20T05:01:54.882Z,998.47
2019-05-20T05:02:35.524Z,998.46
2019-05-20T05:03:16.098Z,998.46
2019-05-20T05:03:56.676Z,998.47
2019-05-20T05:04:37.271Z,998.45
2019-05-20T05:05:17.903Z,998.43
2019-05-20T05:05:58.536Z,998.45
2019-05-20T05:06:39.133Z,998.47
2019-05-20T05:07:19.741Z,998.45
2019-05-20T05:08:00.339Z,998.53
2019-05-20T05:08:40.956Z,998.48
2019-05-20T05:09:21.527Z,998.55
2019-05-20T05:10:02.171Z,998.55
2019-05-20T05:10:42.782Z,998.55
2019-05-20T05:11:23.336Z,998.59
2019-05-20T05:12:03.912Z,998.55
2019-05-20T05:12:44.486Z,998.6
2019-05-20T05:13:25.043Z,998.62
2019-05-20T05:14:05.653Z,998.59
2019-05-20T05:14:46.303Z,998.59
2019-05-20T05:15:26.909Z,998.57
2019-05-20T05:16:07.668Z,998.58
2019-05-20T05:16:48.277Z,998.54
2019-05-20T05:17:28.899Z,998.6
2019-05-20T05:20:42.897Z,998.59
2019-05-20T05:21:23.528Z,998.61
2019-05-20T05:22:04.158Z,998.63
2019-05-20T05:22:44.757Z,998.63
2019-05-20T05:23:25.399Z,998.63
2019-05-20T05:24:05.975Z,998.63
2019-05-20T05:24:46.570Z,998.58
2019-05-20T05:25:27.211Z,998.61
2019-05-20T05:26:07.839Z,998.63
2019-05-20T05:26:48.650Z,998.62
2019-05-20T05:27:29.220Z,998.64
2019-05-20T05:28:09.800Z,998.63
2019-05-20T05:28:50.401Z,998.64
2019-05-20T05:29:30.994Z,998.68
2019-05-20T05:30:11.642Z,998.69
2019-05-20T05:30:52.333Z,998.72
2019-05-20T05:31:33.064Z,998.72
2019-05-20T05:32:13.629Z,998.73
2019-05-20T05:32:54.265Z,998.73
2019-05-20T05:33:34.843Z,998.74
2019-05-20T05:34:15.514Z,998.82
2019-05-20T05:34:56.127Z,998.81
2019-05-20T05:35:36.716Z,998.83
2019-05-20T05:36:17.396Z,998.78
2019-05-20T05:36:58.257Z,998.81
2019-05-20T05:37:39.295Z,998.75
2019-05-20T05:38:20.207Z,998.83
2019-05-20T05:39:01.157Z,998.82
2019-05-20T05:39:41.906Z,998.73
2019-05-20T05:40:22.634Z,998.71
2019-05-20T05:41:03.447Z,998.69
2019-05-20T05:41:44.079Z,998.63
2019-05-20T05:42:24.691Z,998.66
2019-05-20T05:43:05.274Z,998.66
2019-05-20T05:43:45.916Z,998.66
2019-05-20T05:44:26.532Z,998.67
2019-05-20T05:45:07.137Z,998.67
2019-05-20T05:45:47.785Z,998.69
2019-05-20T05:46:28.413Z,998.7
2019-05-20T05:47:08.997Z,998.79
2019-05-20T05:47:49.622Z,998.8
2019-05-20T05:48:30.213Z,998.83
2019-05-20T05:49:10.816Z,998.88
2019-05-20T05:49:51.449Z,998.9
2019-05-20T05:50:32.035Z,998.94
2019-05-20T05:51:12.739Z,998.89
2019-05-20T05:51:53.299Z,998.91
2019-05-20T05:52:33.844Z,999.05
2019-05-20T05:53:14.457Z,999.19
2019-05-20T05:53:55.080Z,999.17
2019-05-20T05:54:35.700Z,999.16
2019-05-20T05:55:16.367Z,999.1
2019-05-20T05:55:56.940Z,999.15
2019-05-20T05:56:37.595Z,999.26
2019-05-20T05:57:18.163Z,999.17
2019-05-20T05:57:58.749Z,999.22
2019-05-20T05:58:39.455Z,999.11
2019-05-20T05:59:20.038Z,999.09
2019-05-20T06:00:00.652Z,999.18
2019-05-20T06:00:41.221Z,998.97
2019-05-20T06:01:21.853Z,999.07
2019-05-20T06:02:02.418Z,999.4
2019-05-20T06:02:43.050Z,999.43
2019-05-20T06:03:23.683Z,999.38
2019-05-20T06:04:04.421Z,999.38
2019-05-20T06:04:45.035Z,999.3
2019-05-20T06:05:25.675Z,999.28
2019-05-20T06:06:11.895Z,999.31
2019-05-20T06:06:47.119Z,999.24
2019-05-20T06:07:27.685Z,999.19
2019-05-20T06:08:08.294Z,999.07
2019-05-20T06:08:48.980Z,999.06
2019-05-20T06:09:29.616Z,999.06
2019-05-20T06:10:10.225Z,999.07
2019-05-20T06:10:50.859Z,998.98
2019-05-20T06:11:31.440Z,998.89
2019-05-20T06:12:12.054Z,998.87
2019-05-20T06:12:52.647Z,998.92
2019-05-20T06:13:33.299Z,999.01
2019-05-20T06:14:13.941Z,999.02
2019-05-20T06:14:54.534Z,998.89
2019-05-20T06:15:35.102Z,998.86
2019-05-20T06:16:15.676Z,998.78
2019-05-20T06:16:56.270Z,998.75
2019-05-20T06:17:36.830Z,998.76
2019-05-20T06:18:17.406Z,998.78
2019-05-20T06:18:58.056Z,998.82
2019-05-20T06:19:38.677Z,998.82
2019-05-20T06:20:19.294Z,998.9
2019-05-20T06:20:59.925Z,998.96
2019-05-20T06:21:40.599Z,998.98
2019-05-20T06:22:21.653Z,998.96
2019-05-20T06:23:02.246Z,998.93
2019-05-20T06:23:42.912Z,998.88
2019-05-20T06:24:23.530Z,998.87
2019-05-20T06:25:04.184Z,998.86
2019-05-20T06:25:44.758Z,998.9
2019-05-20T06:26:25.334Z,998.89
2019-05-20T06:27:06.096Z,998.94
2019-05-20T06:27:46.864Z,998.99
2019-05-20T06:28:27.491Z,999
2019-05-20T06:29:08.327Z,999.02
2019-05-20T06:29:49.034Z,998.98
2019-05-20T06:30:29.635Z,998.93
2019-05-20T06:31:10.222Z,998.92
2019-05-20T06:31:50.799Z,998.9
2019-05-20T06:32:31.381Z,998.92
2019-05-20T06:33:11.945Z,998.8
2019-05-20T06:33:52.537Z,998.8
2019-05-20T06:34:33.127Z,998.72
2019-05-20T06:35:13.698Z,998.75
2019-05-20T06:35:54.288Z,998.77
2019-05-20T06:36:35.014Z,998.75
2019-05-20T06:37:15.566Z,998.69
2019-05-20T06:37:56.135Z,998.66
2019-05-20T06:38:36.740Z,998.58
2019-05-20T06:39:17.457Z,998.54
2019-05-20T06:39:58.033Z,998.51
2019-05-20T06:40:38.630Z,998.59
2019-05-20T06:41:19.218Z,998.61
2019-05-20T06:41:59.792Z,998.63
2019-05-20T06:42:40.386Z,998.67
2019-05-20T06:43:21.142Z,998.67
2019-05-20T06:44:01.799Z,998.74
2019-05-20T06:44:51.998Z,998.75
2019-05-20T06:45:23.082Z,998.78
2019-05-20T06:46:03.657Z,998.77
2019-05-20T06:46:44.219Z,998.74
2019-05-20T06:47:24.852Z,998.74
2019-05-20T06:48:05.974Z,998.72
2019-05-20T06:48:46.646Z,998.71
2019-05-20T06:49:27.225Z,998.72
2019-05-20T06:50:07.808Z,998.68
2019-05-20T06:50:48.401Z,998.65
2019-05-20T06:51:28.997Z,998.67
2019-05-20T06:52:09.608Z,998.67
2019-05-20T06:52:50.187Z,998.67
2019-05-20T06:53:30.854Z,998.63
2019-05-20T06:54:11.456Z,998.63
2019-05-20T06:54:52.097Z,998.69
2019-05-20T06:55:32.698Z,998.67
2019-05-20T06:56:13.273Z,998.7
2019-05-20T06:56:53.854Z,998.76
2019-05-20T06:57:34.407Z,998.74
2019-05-20T06:58:14.993Z,998.68
2019-05-20T06:58:55.581Z,998.71
2019-05-20T06:59:36.155Z,998.71
2019-05-20T07:00:16.760Z,998.7
2019-05-20T07:00:57.329Z,998.71
2019-05-20T07:01:37.953Z,998.7
2019-05-20T07:02:18.517Z,998.69
2019-05-20T07:02:59.098Z,998.68
2019-05-20T07:03:39.738Z,998.68
2019-05-20T07:04:20.324Z,998.61
2019-05-20T07:05:00.912Z,998.62
2019-05-20T07:05:41.540Z,998.61
2019-05-20T07:06:22.234Z,998.6
2019-05-20T07:07:12.399Z,998.6
2019-05-20T07:07:43.436Z,998.58
2019-05-20T07:08:24.044Z,998.54
2019-05-20T07:09:04.688Z,998.58
2019-05-20T07:09:45.258Z,998.56
2019-05-20T07:10:25.849Z,998.53
2019-05-20T07:11:06.451Z,998.57
2019-05-20T07:11:52.486Z,998.52
2019-05-20T07:12:40.415Z,998.53
2019-05-20T07:13:08.333Z,998.55
2019-05-20T07:13:48.890Z,998.58
2019-05-20T07:14:29.532Z,998.57
2019-05-20T07:15:10.119Z,998.6
2019-05-20T07:15:50.702Z,998.59
2019-05-20T07:16:31.332Z,998.6
2019-05-20T07:17:11.974Z,998.66
2019-05-20T07:17:52.555Z,998.65
2019-05-20T07:18:33.143Z,998.63
2019-05-20T07:19:13.797Z,998.66
2019-05-20T07:19:54.370Z,998.67
2019-05-20T07:20:34.990Z,998.65
2019-05-20T07:21:15.642Z,998.59
2019-05-20T07:21:56.242Z,998.6
2019-05-20T07:22:54.424Z,998.61
2019-05-20T07:23:17.507Z,998.68
2019-05-20T07:23:58.093Z,998.61
2019-05-20T07:24:38.648Z,998.62
2019-05-20T07:25:19.263Z,998.61
2019-05-20T07:25:59.835Z,998.62
2019-05-20T07:26:40.442Z,998.64
2019-05-20T07:27:21.047Z,998.65
2019-05-20T07:28:01.648Z,998.61
2019-05-20T07:28:42.229Z,998.58
2019-05-20T07:29:22.833Z,998.52
2019-05-20T07:30:03.457Z,998.55
2019-05-20T07:30:44.016Z,998.55
2019-05-20T07:31:24.612Z,998.55
2019-05-20T07:32:05.228Z,998.54
2019-05-20T07:32:45.813Z,998.5
2019-05-20T07:33:26.454Z,998.49
2019-05-20T07:34:07.046Z,998.49
2019-05-20T07:34:47.674Z,998.5
2019-05-20T07:35:30.559Z,998.49
2019-05-20T07:36:10.061Z,998.5
2019-05-20T07:37:02.338Z,998.48
2019-05-20T07:37:30.110Z,998.5
2019-05-20T07:38:10.756Z,998.5
2019-05-20T07:38:51.415Z,998.47
2019-05-20T07:39:32.053Z,998.47
2019-05-20T07:40:12.645Z,998.52
2019-05-20T07:40:53.247Z,998.47
2019-05-20T07:41:33.817Z,998.51
2019-05-20T07:42:14.469Z,998.44
2019-05-20T07:42:55.058Z,998.44
2019-05-20T07:43:35.675Z,998.43
2019-05-20T07:44:16.274Z,998.43
2019-05-20T07:44:56.854Z,998.45
2019-05-20T07:45:37.448Z,998.44
2019-05-20T07:46:18.058Z,998.41
2019-05-20T07:46:58.729Z,998.38
2019-05-20T07:47:39.199Z,998.43
2019-05-20T07:48:19.867Z,998.43
2019-05-20T07:49:00.537Z,998.45
2019-05-20T07:49:41.076Z,998.47
2019-05-20T07:50:21.719Z,998.46
2019-05-20T07:51:02.293Z,998.42
2019-05-20T07:51:42.877Z,998.44
2019-05-20T07:52:23.517Z,998.41
2019-05-20T07:53:04.164Z,998.41
2019-05-20T07:53:44.749Z,998.41
2019-05-20T07:54:25.418Z,998.39
2019-05-20T07:55:05.992Z,998.41
2019-05-20T07:55:46.604Z,998.38
2019-05-20T07:56:27.131Z,998.35
2019-05-20T07:57:07.711Z,998.34
2019-05-20T07:57:48.353Z,998.35
2019-05-20T07:58:28.999Z,998.36
2019-05-20T07:59:09.634Z,998.37
2019-05-20T07:59:50.221Z,998.36
2019-05-20T08:00:30.839Z,998.36
2019-05-20T08:01:11.486Z,998.39
2019-05-20T08:01:52.096Z,998.41
2019-05-20T08:02:32.723Z,998.4
2019-05-20T08:03:13.270Z,998.4
2019-05-20T08:03:53.918Z,998.45
2019-05-20T08:04:34.539Z,998.4
2019-05-20T08:05:15.174Z,998.37
2019-05-20T08:05:55.753Z,998.41
2019-05-20T08:06:36.373Z,998.35
2019-05-20T08:07:27.133Z,998.39
2019-05-20T08:07:57.779Z,998.33
2019-05-20T08:08:38.359Z,998.36
2019-05-20T08:09:18.939Z,998.33
2019-05-20T08:09:59.751Z,998.32
2019-05-20T08:10:40.283Z,998.34
2019-05-20T08:11:20.869Z,998.32
2019-05-20T08:13:33.773Z,998.3
2019-05-20T08:14:14.339Z,998.24
2019-05-20T08:14:54.924Z,998.26
2019-05-20T08:15:35.485Z,998.25
2019-05-20T08:16:16.069Z,998.24
2019-05-20T08:16:56.641Z,998.27
2019-05-20T08:17:37.482Z,998.25
2019-05-20T08:18:20.088Z,998.3
2019-05-20T08:18:58.416Z,998.22
2019-05-20T08:19:39.017Z,998.28
2019-05-20T08:20:19.614Z,998.24
2019-05-20T08:21:00.193Z,998.23
2019-05-20T08:21:40.799Z,998.26
2019-05-20T08:22:21.345Z,998.21
2019-05-20T08:23:02.217Z,998.2
2019-05-20T08:23:42.805Z,998.24
2019-05-20T08:24:23.358Z,998.19
2019-05-20T08:25:03.935Z,998.2
2019-05-20T08:25:44.501Z,998.23
2019-05-20T08:26:25.146Z,998.26
2019-05-20T08:27:05.713Z,998.25
2019-05-20T08:27:46.269Z,998.26
2019-05-20T08:28:26.836Z,998.22
2019-05-20T08:29:07.407Z,998.22
2019-05-20T08:29:47.968Z,998.26
2019-05-20T08:30:28.505Z,998.25
2019-05-20T08:31:09.076Z,998.26
2019-05-20T08:31:49.648Z,998.32
2019-05-20T08:32:30.229Z,998.24
2019-05-20T08:33:10.791Z,998.21
2019-05-20T08:33:51.382Z,998.26
2019-05-20T08:34:32.100Z,998.22
2019-05-20T08:35:12.512Z,998.21
2019-05-20T08:35:53.070Z,998.22
2019-05-20T08:36:33.691Z,998.18
2019-05-20T08:37:14.286Z,998.2
2019-05-20T08:37:54.832Z,998.24
2019-05-20T08:38:35.400Z,998.23
2019-05-20T08:39:15.970Z,998.21
2019-05-20T08:39:56.570Z,998.21